Time;durP1;ratioP1;P1;durP2;ratioP2;P2;SDS_P1;SDS_P2;PMS_P1;PMS_P2;Temp;Humidity;BMP_temperature;BMP_pressure;BME280_temperature;BME280_humidity;BME280_pressure;Samples;Min_cycle;Max_cycle;Signal;HPM_P1;HPM_P2
2023/04/16 00:01:07;;;;;;;11.20;2.30;;;;;;;-142.75;100.00;78147.34;5025165;28;20025;-65
2023/04/16 00:03:32;;;;;;;15.07;2.93;;;;;;;-142.75;100.00;78149.31;5007355;28;20045;-65
2023/04/16 00:05:58;;;;;;;9.90;2.97;;;;;;;-142.75;100.00;78143.41;5035036;28;20378;-65
2023/04/16 00:08:23;;;;;;;13.93;2.90;;;;;;;-142.75;100.00;78153.25;5034797;28;20021;-65
2023/04/16 00:10:50;;;;;;;7.73;2.10;;;;;;;-142.75;100.00;78151.28;5034875;28;20040;-65
2023/04/16 00:13:15;;;;;;;8.43;2.10;;;;;;;-142.75;100.00;78165.06;5017007;28;20048;-65
2023/04/16 00:15:40;;;;;;;7.20;2.10;;;;;;;-142.75;100.00;78137.50;5034890;28;20029;-65
2023/04/16 00:18:06;;;;;;;12.53;2.53;;;;;;;-142.75;100.00;78153.25;5034669;28;20030;-65
2023/04/16 00:20:31;;;;;;;13.93;2.70;;;;;;;-142.75;100.00;78145.38;5034653;28;20424;-66
2023/04/16 00:22:56;;;;;;;8.03;2.50;;;;;;;-142.75;100.00;78125.69;5034585;28;20037;-66
2023/04/16 00:25:22;;;;;;;12.03;2.10;;;;;;;-142.75;100.00;78141.44;5034698;28;20108;-65
2023/04/16 00:27:47;;;;;;;10.97;2.63;;;;;;;-142.75;100.00;78149.31;5034491;28;20378;-67
2023/04/16 00:30:12;;;;;;;8.77;2.37;;;;;;;-142.75;100.00;78141.44;5034642;28;20102;-65
2023/04/16 00:32:38;;;;;;;6.80;1.83;;;;;;;-142.75;100.00;78141.44;5034357;28;20061;-63
2023/04/16 00:35:04;;;;;;;10.83;2.43;;;;;;;-142.75;100.00;78127.66;5034501;28;20021;-65
2023/04/16 00:37:29;;;;;;;10.37;2.80;;;;;;;-142.75;100.00;78131.59;5034219;28;20033;-65
2023/04/16 00:39:55;;;;;;;7.73;2.10;;;;;;;-142.75;100.00;78119.78;5016482;28;20025;-65
2023/04/16 00:42:20;;;;;;;9.80;2.90;;;;;;;-142.75;100.00;78106.00;5034297;28;20041;-64
2023/04/16 00:44:45;;;;;;;5.07;2.37;;;;;;;-142.75;100.00;78129.63;5016468;28;20672;-66
2023/04/16 00:47:11;;;;;;;9.63;2.23;;;;;;;-142.75;100.00;78113.88;5034154;28;20477;-66
2023/04/16 00:49:36;;;;;;;9.87;2.00;;;;;;;-142.75;100.00;78115.84;5034263;28;20481;-65
2023/04/16 00:52:02;;;;;;;7.70;1.57;;;;;;;-142.75;100.00;78127.66;5016283;28;20109;-65
2023/04/16 00:54:27;;;;;;;7.83;2.10;;;;;;;-142.75;100.00;78113.88;5033954;28;20575;-66
2023/04/16 00:56:53;;;;;;;7.80;2.30;;;;;;;-142.75;100.00;78107.97;5034024;28;20037;-65
2023/04/16 00:59:18;;;;;;;8.10;2.13;;;;;;;-142.75;100.00;78117.81;5016436;28;20026;-65
2023/04/16 01:01:44;;;;;;;11.80;2.43;;;;;;;-142.75;100.00;78106.00;5034041;28;20553;-64
2023/04/16 01:04:09;;;;;;;9.70;1.97;;;;;;;-142.75;100.00;78109.94;5015539;28;20157;-64
2023/04/16 01:06:35;;;;;;;7.00;1.80;;;;;;;-142.75;100.00;78094.19;5033684;28;20061;-65
2023/04/16 01:09:00;;;;;;;12.20;2.00;;;;;;;-142.75;100.00;78102.06;5033650;28;20025;-65
2023/04/16 01:11:26;;;;;;;7.23;2.13;;;;;;;-142.75;100.00;78092.22;5033806;28;20155;-65
2023/04/16 01:13:51;;;;;;;14.00;2.03;;;;;;;-142.75;100.00;78092.22;5016066;28;20021;-65
2023/04/16 01:16:16;;;;;;;11.70;2.20;;;;;;;-142.75;100.00;78084.34;5033817;28;20029;-64
2023/04/16 01:18:42;;;;;;;17.23;3.00;;;;;;;-142.75;100.00;78074.50;5033565;28;20021;-65
2023/04/16 01:21:07;;;;;;;8.30;1.90;;;;;;;-142.75;100.00;78078.44;5015760;28;20374;-65
2023/04/16 01:23:33;;;;;;;7.53;2.17;;;;;;;-142.75;100.00;78074.50;5033495;28;20061;-65
2023/04/16 01:25:58;;;;;;;9.33;1.93;;;;;;;-142.75;100.00;78066.63;5033628;28;20124;-64
2023/04/16 01:28:24;;;;;;;11.47;2.30;;;;;;;-142.75;100.00;78068.59;5015638;28;20396;-65
2023/04/16 01:30:49;;;;;;;17.83;2.70;;;;;;;-142.75;100.00;78066.63;5033533;28;20041;-64
2023/04/16 01:33:14;;;;;;;9.77;2.10;;;;;;;-142.75;100.00;78064.66;5015545;28;20022;-65
2023/04/16 01:35:40;;;;;;;13.97;2.63;;;;;;;-142.75;100.00;78068.59;5033445;28;20043;-65
2023/04/16 01:38:07;;;;;;;8.10;2.07;;;;;;;-142.75;100.00;78062.69;5015363;28;20029;-66
2023/04/16 01:40:33;;;;;;;9.30;2.47;;;;;;;-142.75;100.00;78066.63;5033270;28;20495;-65
2023/04/16 01:42:59;;;;;;;17.13;2.77;;;;;;;-142.75;100.00;78060.72;5015390;28;20021;-65
2023/04/16 01:45:24;;;;;;;10.40;2.17;;;;;;;-142.75;100.00;78084.34;5033249;28;20025;-65
2023/04/16 01:47:50;;;;;;;8.33;3.07;;;;;;;-142.75;100.00;78086.31;5033013;28;20037;-66
2023/04/16 01:50:16;;;;;;;15.73;3.03;;;;;;;-142.75;100.00;78082.38;5032946;28;20036;-65
2023/04/16 01:52:42;;;;;;;4.93;2.37;;;;;;;-142.75;100.00;78082.38;5051421;22;20120;-69
2023/04/16 01:55:08;;;;;;;7.03;2.50;;;;;;;-142.75;100.00;78090.25;4995038;28;20121;-69
2023/04/16 01:57:33;;;;;;;19.13;2.83;;;;;;;-142.75;100.00;78080.41;5012916;28;20101;-69
2023/04/16 01:59:59;;;;;;;11.07;2.17;;;;;;;-142.75;100.00;78084.34;5013485;28;20497;-69
2023/04/16 02:02:26;;;;;;;10.43;3.23;;;;;;;-142.75;100.00;78082.38;5013286;28;20056;-69
2023/04/16 02:04:52;;;;;;;11.73;2.57;;;;;;;-142.75;100.00;78070.56;5012984;28;20033;-69
2023/04/16 02:07:18;;;;;;;8.63;2.53;;;;;;;-142.75;100.00;78070.56;5013020;28;20026;-69
2023/04/16 02:09:43;;;;;;;12.17;2.80;;;;;;;-142.75;100.00;78072.53;5013004;28;20030;-69
2023/04/16 02:12:10;;;;;;;14.00;3.47;;;;;;;-142.75;100.00;78072.53;5012893;28;20065;-69
2023/04/16 02:14:35;;;;;;;12.13;3.40;;;;;;;-142.75;100.00;78072.53;4995249;28;20513;-69
2023/04/16 02:17:01;;;;;;;9.73;2.70;;;;;;;-142.75;100.00;78086.31;5011799;28;20022;-69
2023/04/16 02:19:26;;;;;;;10.37;2.83;;;;;;;-142.75;100.00;78094.19;4995268;28;20041;-69
2023/04/16 02:21:52;;;;;;;9.20;3.03;;;;;;;-142.75;100.00;78088.28;5012867;28;20500;-70
2023/04/16 02:24:18;;;;;;;10.63;3.17;;;;;;;-142.75;100.00;78086.31;5012750;28;20493;-69
2023/04/16 02:26:44;;;;;;;9.63;3.13;;;;;;;-142.75;100.00;78102.06;5012836;28;20022;-69
2023/04/16 02:29:09;;;;;;;13.77;3.47;;;;;;;-142.75;100.00;78098.13;5012728;28;20068;-69
2023/04/16 02:31:34;;;;;;;8.17;3.03;;;;;;;-142.75;100.00;78109.94;5012551;28;20083;-69
2023/04/16 02:34:00;;;;;;;8.20;3.33;;;;;;;-142.75;100.00;78106.00;4994681;28;20381;-69
2023/04/16 02:36:26;;;;;;;7.90;3.17;;;;;;;-142.75;100.00;78109.94;4994942;28;20080;-69
2023/04/16 02:38:51;;;;;;;17.77;2.97;;;;;;;-142.75;100.00;78098.13;5012284;28;20044;-69
2023/04/16 02:41:17;;;;;;;8.03;3.07;;;;;;;-142.75;100.00;78113.88;5012454;28;20513;-69
2023/04/16 02:43:42;;;;;;;9.63;3.23;;;;;;;-142.75;100.00;78106.00;4994607;28;20014;-69
2023/04/16 02:46:07;;;;;;;8.83;3.00;;;;;;;-142.75;100.00;78094.19;4994688;28;20370;-69
2023/04/16 02:48:33;;;;;;;15.77;4.00;;;;;;;-142.75;100.00;78106.00;5012097;28;20464;-69
2023/04/16 02:50:58;;;;;;;10.73;3.17;;;;;;;-142.75;100.00;78094.19;5012310;28;20025;-69
2023/04/16 02:53:23;;;;;;;11.80;3.37;;;;;;;-142.75;100.00;78090.25;5011828;28;20398;-69
2023/04/16 02:55:53;;;;;;;11.60;3.10;;;;;;;-142.75;100.00;78090.25;5012227;28;20510;-69
2023/04/16 02:58:20;;;;;;;9.47;2.70;;;;;;;-142.75;100.00;78090.25;5011983;28;20028;-69
2023/04/16 03:00:45;;;;;;;10.97;3.17;;;;;;;-142.75;100.00;78096.16;5012159;28;20396;-69
2023/04/16 03:03:11;;;;;;;10.53;3.10;;;;;;;-142.75;100.00;78094.19;5011802;28;20033;-69
2023/04/16 03:05:36;;;;;;;12.03;2.93;;;;;;;-142.75;100.00;78094.19;4994480;28;20052;-69
2023/04/16 03:08:02;;;;;;;7.40;2.33;;;;;;;-142.75;100.00;78094.19;4994331;28;20672;-69
2023/04/16 03:10:28;;;;;;;9.23;2.93;;;;;;;-142.75;100.00;78096.16;5012098;28;20030;-69
2023/04/16 03:12:53;;;;;;;16.23;3.13;;;;;;;-142.75;100.00;78084.34;5011776;28;20022;-69
2023/04/16 03:15:18;;;;;;;15.83;3.07;;;;;;;-142.75;100.00;78086.31;5012013;28;20393;-69
2023/04/16 03:17:44;;;;;;;15.47;2.97;;;;;;;-142.75;100.00;78090.25;4994208;28;20107;-69
2023/04/16 03:20:09;;;;;;;8.90;3.20;;;;;;;-142.75;100.00;78102.06;5011936;28;20482;-69
2023/04/16 03:22:35;;;;;;;11.03;3.10;;;;;;;-142.75;100.00;78088.28;5011883;28;20014;-69
2023/04/16 03:25:00;;;;;;;9.93;3.03;;;;;;;-142.75;100.00;78096.16;5011757;28;20026;-69
2023/04/16 03:27:26;;;;;;;15.97;3.80;;;;;;;-142.75;100.00;78102.06;5013513;28;20097;-69
2023/04/16 03:29:51;;;;;;;10.97;3.53;;;;;;;-142.75;100.00;78098.13;5016003;28;20394;-69
2023/04/16 03:32:16;;;;;;;12.70;3.30;;;;;;;-142.75;100.00;78092.22;5015715;28;20025;-69
2023/04/16 03:34:42;;;;;;;14.93;3.20;;;;;;;-142.75;100.00;78098.13;5015954;28;20077;-69
2023/04/16 03:37:10;;;;;;;16.10;3.40;;;;;;;-142.75;100.00;78098.13;5015790;28;20709;-69
2023/04/16 03:39:36;;;;;;;13.73;2.93;;;;;;;-142.75;100.00;78082.38;5015828;28;20527;-69
2023/04/16 03:42:02;;;;;;;14.47;3.17;;;;;;;-142.75;100.00;78090.25;5015692;28;20026;-68
2023/04/16 03:44:27;;;;;;;9.03;3.37;;;;;;;-142.75;100.00;78092.22;5015602;28;20025;-69
2023/04/16 03:46:52;;;;;;;13.47;3.60;;;;;;;-142.75;100.00;78086.31;4997786;28;20026;-69
2023/04/16 03:49:18;;;;;;;13.47;3.33;;;;;;;-142.75;100.00;78094.19;5015635;28;20140;-69
2023/04/16 03:51:43;;;;;;;13.37;3.77;;;;;;;-142.75;100.00;78088.28;5015576;28;20033;-69
2023/04/16 03:54:08;;;;;;;13.30;3.63;;;;;;;-142.75;100.00;78088.28;5015165;28;20076;-69
2023/04/16 03:56:34;;;;;;;11.90;3.20;;;;;;;-142.75;100.00;78092.22;4997929;28;20400;-69
2023/04/16 03:58:59;;;;;;;14.90;3.83;;;;;;;-142.75;100.00;78086.31;5015251;28;20064;-69
2023/04/16 04:01:24;;;;;;;11.67;3.57;;;;;;;-142.75;100.00;78082.38;4997732;28;20049;-69
2023/04/16 04:03:50;;;;;;;16.57;3.57;;;;;;;-142.75;100.00;78078.44;4997581;28;20104;-69
2023/04/16 04:06:15;;;;;;;14.97;3.67;;;;;;;-142.75;100.00;78082.38;5015324;28;20569;-69
2023/04/16 04:08:40;;;;;;;10.50;2.93;;;;;;;-142.75;100.00;78068.59;5015075;28;20030;-69
2023/04/16 04:11:06;;;;;;;19.40;3.50;;;;;;;-142.75;100.00;78072.53;5015250;28;20053;-69
2023/04/16 04:13:31;;;;;;;22.43;4.10;;;;;;;-142.75;100.00;78068.59;5014972;28;20028;-69
2023/04/16 04:15:56;;;;;;;8.20;2.90;;;;;;;-142.75;100.00;78064.66;4997392;28;20029;-69
2023/04/16 04:18:21;;;;;;;14.63;2.63;;;;;;;-142.75;100.00;78074.50;5014890;28;20517;-69
2023/04/16 04:20:47;;;;;;;11.60;2.93;;;;;;;-142.75;100.00;78068.59;5015117;28;20028;-69
2023/04/16 04:23:12;;;;;;;10.87;3.10;;;;;;;-142.75;100.00;78070.56;5014858;28;20072;-69
2023/04/16 04:25:37;;;;;;;11.63;3.23;;;;;;;-142.75;100.00;78076.47;4997390;28;20022;-69
2023/04/16 04:28:03;;;;;;;5.50;2.33;;;;;;;-142.75;100.00;78068.59;4997179;28;20033;-69
2023/04/16 04:30:28;;;;;;;8.73;3.30;;;;;;;-142.75;100.00;78058.72;5014768;28;20018;-69
2023/04/16 04:32:54;;;;;;;11.13;2.60;;;;;;;-142.75;100.00;78070.56;5014561;28;20022;-69
2023/04/16 04:35:19;;;;;;;13.47;2.80;;;;;;;-142.75;100.00;78066.63;5014812;28;20061;-69
2023/04/16 04:37:45;;;;;;;10.87;2.80;;;;;;;-142.75;100.00;78074.50;4997019;28;20109;-69
2023/04/16 04:40:10;;;;;;;8.27;2.70;;;;;;;-142.75;100.00;78066.63;5014022;28;20053;-69
2023/04/16 04:42:36;;;;;;;7.50;2.00;;;;;;;-142.75;100.00;78072.53;5014911;28;20022;-70
2023/04/16 04:45:02;;;;;;;7.93;1.97;;;;;;;-142.75;100.00;78082.38;5014418;28;20057;-69
2023/04/16 04:47:27;;;;;;;8.70;2.10;;;;;;;-142.75;100.00;78066.63;5014427;28;20030;-69
2023/04/16 04:49:53;;;;;;;6.10;2.30;;;;;;;-142.75;100.00;78062.69;5014440;28;20105;-69
2023/04/16 04:52:19;;;;;;;8.47;2.87;;;;;;;-142.75;100.00;78064.66;5014260;28;20021;-69
2023/04/16 04:54:44;;;;;;;6.70;2.33;;;;;;;-142.75;100.00;78074.50;4996639;28;20110;-69
2023/04/16 04:57:10;;;;;;;7.30;2.13;;;;;;;-142.75;100.00;78068.59;4996588;28;20013;-69
2023/04/16 04:59:35;;;;;;;11.27;2.60;;;;;;;-142.75;100.00;78066.63;5014215;28;20048;-69
2023/04/16 05:02:02;;;;;;;8.17;1.93;;;;;;;-142.75;100.00;78080.41;4996679;28;20397;-69
2023/04/16 05:04:28;;;;;;;7.17;1.90;;;;;;;-142.75;100.00;78078.44;5014176;28;20097;-68
2023/04/16 05:06:53;;;;;;;7.90;2.10;;;;;;;-142.75;100.00;78066.63;5014067;28;20052;-69
2023/04/16 05:09:18;;;;;;;10.10;2.03;;;;;;;-142.75;100.00;78064.66;4996497;28;20514;-69
2023/04/16 05:11:44;;;;;;;9.33;2.30;;;;;;;-142.75;100.00;78062.69;4996559;28;20072;-69
2023/04/16 05:14:09;;;;;;;8.07;2.20;;;;;;;-142.75;100.00;78050.84;4996435;28;20010;-68
2023/04/16 05:16:36;;;;;;;7.57;2.00;;;;;;;-142.75;100.00;78058.72;5014831;28;20156;-69
2023/04/16 05:19:01;;;;;;;7.13;2.10;;;;;;;-142.75;100.00;78062.69;5014348;28;20497;-69
2023/04/16 05:21:26;;;;;;;6.90;2.70;;;;;;;-142.75;100.00;78070.56;4996971;28;20112;-69
2023/04/16 05:23:52;;;;;;;6.87;1.90;;;;;;;-142.75;100.00;78070.56;4996707;28;20018;-68
2023/04/16 05:26:17;;;;;;;6.90;2.23;;;;;;;-142.75;100.00;78058.72;4996620;28;20026;-68
2023/04/16 05:28:43;;;;;;;10.50;2.70;;;;;;;-142.75;100.00;78058.72;5014251;28;20450;-68
2023/04/16 05:31:08;;;;;;;5.33;2.30;;;;;;;-142.75;100.00;78066.63;5014289;28;20029;-68
2023/04/16 05:33:33;;;;;;;16.50;3.00;;;;;;;-142.75;100.00;78074.50;4996688;28;20099;-68
2023/04/16 05:35:59;;;;;;;6.33;2.60;;;;;;;-142.75;100.00;78066.63;5014092;28;20459;-68
2023/04/16 05:38:24;;;;;;;6.87;2.40;;;;;;;-142.75;100.00;78076.47;4996647;28;20033;-69
2023/04/16 05:40:49;;;;;;;9.07;3.00;;;;;;;-142.75;100.00;78066.63;4996526;28;20028;-68
2023/04/16 05:43:14;;;;;;;10.53;3.17;;;;;;;-142.75;100.00;78070.56;4996001;28;20117;-69
2023/04/16 05:45:40;;;;;;;11.70;2.93;;;;;;;-142.75;100.00;78066.63;4996193;28;20120;-68
2023/04/16 05:48:07;;;;;;;5.90;2.63;;;;;;;-142.75;100.00;78086.31;4996399;28;20037;-68
2023/04/16 05:50:33;;;;;;;10.50;2.53;;;;;;;-142.75;100.00;78074.50;4996493;28;20022;-68
2023/04/16 05:52:58;;;;;;;9.97;2.87;;;;;;;-142.75;100.00;78070.56;4996075;28;20037;-68
2023/04/16 05:55:24;;;;;;;8.00;3.23;;;;;;;-142.75;100.00;78070.56;5013831;28;20041;-69
2023/04/16 05:57:49;;;;;;;8.33;2.77;;;;;;;-142.75;100.00;78072.53;5023503;28;20045;-69
2023/04/16 06:00:15;;;;;;;10.20;3.03;;;;;;;-142.75;100.00;78086.31;5033244;28;20025;-68
2023/04/16 06:02:42;;;;;;;10.77;3.57;;;;;;;-142.75;100.00;78076.47;5033092;28;20017;-68
2023/04/16 06:05:08;;;;;;;8.83;2.97;;;;;;;-142.75;100.00;78074.50;5033134;28;20440;-68
2023/04/16 06:07:33;;;;;;;9.90;2.70;;;;;;;-142.75;100.00;78082.38;5033072;28;20025;-69
2023/04/16 06:09:58;;;;;;;8.87;2.77;;;;;;;-142.75;100.00;78086.31;5033236;28;20025;-68
2023/04/16 06:12:24;;;;;;;6.97;2.83;;;;;;;-142.75;100.00;78082.38;5015490;28;20036;-69
2023/04/16 06:14:49;;;;;;;7.70;2.90;;;;;;;-142.75;100.00;78062.69;5033151;28;20487;-69
2023/04/16 06:17:15;;;;;;;12.67;3.73;;;;;;;-142.75;100.00;78066.63;5032954;28;20029;-68
2023/04/16 06:19:40;;;;;;;5.60;2.60;;;;;;;-142.75;100.00;78076.47;5032911;28;20071;-68
2023/04/16 06:22:06;;;;;;;10.20;2.90;;;;;;;-142.75;100.00;78068.59;5015187;28;20025;-68
2023/04/16 06:24:32;;;;;;;5.67;2.83;;;;;;;-142.75;100.00;78082.38;5032921;28;20021;-68
2023/04/16 06:26:57;;;;;;;9.63;2.93;;;;;;;-142.75;100.00;78074.50;5032967;28;20513;-68
2023/04/16 06:29:22;;;;;;;11.03;3.10;;;;;;;-142.75;100.00;78082.38;5033102;28;20022;-68
2023/04/16 06:31:48;;;;;;;9.50;3.07;;;;;;;-142.75;100.00;78070.56;5015545;28;20022;-68
2023/04/16 06:34:13;;;;;;;10.93;3.37;;;;;;;-142.75;100.00;78078.44;5032726;28;20017;-68
2023/04/16 06:36:38;;;;;;;10.87;3.07;;;;;;;-142.75;100.00;78066.63;5033426;28;20462;-68
2023/04/16 06:39:04;;;;;;;8.53;2.50;;;;;;;-142.75;100.00;78078.44;5033578;28;20068;-68
2023/04/16 06:41:29;;;;;;;6.70;3.07;;;;;;;-142.75;100.00;78066.63;5015829;28;20028;-68
2023/04/16 06:43:54;;;;;;;7.00;3.07;;;;;;;-142.75;100.00;78076.47;5030770;28;20385;-68
2023/04/16 06:46:20;;;;;;;7.80;2.87;;;;;;;-142.75;100.00;78074.50;4996172;28;20058;-68
2023/04/16 06:48:45;;;;;;;9.30;2.77;;;;;;;-142.75;100.00;78074.50;4995729;28;20061;-67
2023/04/16 06:51:11;;;;;;;9.27;2.97;;;;;;;-142.75;100.00;78070.56;5012335;28;20054;-66
2023/04/16 06:53:37;;;;;;;6.40;3.03;;;;;;;-142.75;100.00;78074.50;5011918;28;20018;-67
2023/04/16 06:56:03;;;;;;;6.85;2.78;;;;;;;-142.75;100.00;78070.56;5012171;28;20021;-65
2023/04/16 06:58:28;;;;;;;7.63;2.70;;;;;;;-142.75;100.00;78080.41;5007738;28;20160;-69
2023/04/16 07:00:53;;;;;;;7.10;3.20;;;;;;;-142.75;100.00;78088.28;5032160;28;20485;-68
2023/04/16 07:03:19;;;;;;;13.30;3.37;;;;;;;-142.75;100.00;78080.41;5013702;28;20508;-68
2023/04/16 07:05:44;;;;;;;9.13;3.50;;;;;;;-142.75;100.00;78078.44;5031718;28;20025;-68
2023/04/16 07:08:09;;;;;;;10.13;3.43;;;;;;;-142.75;100.00;78074.50;5031401;28;20032;-68
2023/04/16 07:10:35;;;;;;;9.95;4.15;;;;;;;-142.75;100.00;78066.63;5031671;28;20107;-67
2023/04/16 07:13:00;;;;;;;10.43;4.00;;;;;;;-142.75;100.00;78068.59;5031436;28;20101;-68
2023/04/16 07:15:26;;;;;;;12.60;3.73;;;;;;;-142.75;100.00;78066.63;5031720;28;20091;-68
2023/04/16 07:17:51;;;;;;;14.33;4.77;;;;;;;-142.75;100.00;78062.69;5031512;28;20127;-68
2023/04/16 07:20:17;;;;;;;10.23;4.30;;;;;;;-142.75;100.00;78066.63;5014257;28;20060;-68
2023/04/16 07:22:42;;;;;;;10.53;4.00;;;;;;;-142.75;100.00;78062.69;5031389;28;20656;-68
2023/04/16 07:25:08;;;;;;;17.03;4.50;;;;;;;-142.75;100.00;78072.53;5031569;28;20028;-68
2023/04/16 07:27:33;;;;;;;16.20;4.87;;;;;;;-142.75;100.00;78066.63;5031588;28;20053;-67
2023/04/16 07:29:58;;;;;;;9.50;3.60;;;;;;;-142.75;100.00;78070.56;5031588;28;20029;-68
2023/04/16 07:32:24;;;;;;;11.70;4.10;;;;;;;-142.75;100.00;78066.63;5031424;28;20061;-67
2023/04/16 07:34:49;;;;;;;8.60;3.67;;;;;;;-142.75;100.00;78076.47;5013708;28;20022;-67
2023/04/16 07:37:15;;;;;;;10.80;4.20;;;;;;;-142.75;100.00;78062.69;5031332;28;20079;-68
2023/04/16 07:39:40;;;;;;;10.40;4.00;;;;;;;-142.75;100.00;78052.81;5013749;28;20111;-68
2023/04/16 07:42:06;;;;;;;10.23;4.30;;;;;;;-142.75;100.00;78068.59;5013664;28;20032;-68
2023/04/16 07:44:31;;;;;;;9.95;3.60;;;;;;;-142.75;100.00;78060.72;5031379;28;20109;-68
2023/04/16 07:46:56;;;;;;;11.20;4.60;;;;;;;-142.75;100.00;78050.84;5031154;28;20053;-67
2023/04/16 07:49:22;;;;;;;10.00;3.58;;;;;;;-142.75;100.00;78066.63;5031363;28;20077;-67
2023/04/16 07:51:47;;;;;;;9.18;3.75;;;;;;;-142.75;100.00;78066.63;5031469;28;20516;-68
2023/04/16 07:54:13;;;;;;;11.93;3.80;;;;;;;-142.75;100.00;78052.81;5037728;22;20054;-65
2023/04/16 07:56:38;;;;;;;9.98;3.67;;;;;;;-142.75;100.00;78050.84;5009478;28;20033;-64
2023/04/16 07:59:03;;;;;;;12.37;4.13;;;;;;;-142.75;100.00;78042.97;5008630;28;20490;-65
2023/04/16 08:01:29;;;;;;;10.77;6.07;;;;;;;-142.75;100.00;78050.84;5010271;28;20033;-64
2023/04/16 08:03:55;;;;;;;12.10;5.70;;;;;;;-142.75;100.00;78044.94;5011401;28;20022;-64
2023/04/16 08:06:20;;;;;;;10.93;4.38;;;;;;;-142.75;100.00;78044.94;5011741;28;20033;-65
2023/04/16 08:08:45;;;;;;;7.63;4.00;;;;;;;-142.75;100.00;78042.97;5010088;28;20029;-64
2023/04/16 08:11:11;;;;;;;12.73;4.28;;;;;;;-142.75;100.00;78037.06;5011556;28;20083;-64
2023/04/16 08:13:36;;;;;;;7.25;3.25;;;;;;;-142.75;100.00;78046.91;5011594;28;20025;-64
2023/04/16 08:16:01;;;;;;;8.40;4.15;;;;;;;-142.75;100.00;78052.81;5015179;28;20080;-64
2023/04/16 08:18:27;;;;;;;15.32;5.28;;;;;;;-142.75;100.00;78037.06;5013688;28;20478;-65
2023/04/16 08:20:52;;;;;;;13.60;5.60;;;;;;;-142.75;100.00;78046.91;5013810;28;20497;-64
2023/04/16 08:23:17;;;;;;;9.63;5.50;;;;;;;-142.75;100.00;78044.94;5014799;28;20049;-64
2023/04/16 08:25:43;;;;;;;10.20;5.40;;;;;;;-142.75;100.00;78039.03;5014973;28;20029;-64
2023/04/16 08:28:08;;;;;;;11.53;4.77;;;;;;;-142.75;100.00;78050.84;5013632;28;20485;-64
2023/04/16 08:30:34;;;;;;;13.80;6.73;;;;;;;-142.75;100.00;78064.66;5006001;28;20022;-63
2023/04/16 08:32:59;;;;;;;15.70;6.43;;;;;;;-142.75;100.00;78058.72;5010567;28;20029;-65
2023/04/16 08:35:24;;;;;;;14.53;7.83;;;;;;;-142.75;100.00;78046.91;5014652;28;20508;-64
2023/04/16 08:37:50;;;;;;;15.05;6.82;;;;;;;-142.75;100.00;78039.03;5014665;28;20018;-64
2023/04/16 08:40:16;;;;;;;14.60;6.65;;;;;;;-142.75;100.00;78027.22;5014776;28;20033;-64
2023/04/16 08:42:51;;;;;;;11.95;6.25;;;;;;;-142.75;100.00;78019.34;5014592;28;20026;-63
2023/04/16 08:45:17;;;;;;;16.30;6.57;;;;;;;-142.75;100.00;78009.50;5008411;28;20037;-64
2023/04/16 08:47:45;;;;;;;12.18;6.50;;;;;;;-142.75;100.00;78019.34;5003219;28;20034;-65
2023/04/16 08:50:13;;;;;;;10.63;5.63;;;;;;;-142.75;100.00;78029.19;5010356;28;20497;-65
2023/04/16 08:52:49;;;;;;;14.15;5.60;;;;;;;-142.75;100.00;78027.22;5013172;28;20071;-66
2023/04/16 08:55:17;;;;;;;17.15;10.98;;;;;;;-142.75;100.00;78052.81;5012990;28;20045;-65
2023/04/16 08:58:00;;;;;;;13.93;6.18;;;;;;;-142.75;100.00;78042.97;5004085;28;20030;-64
2023/04/16 09:00:25;;;;;;;12.50;6.65;;;;;;;-142.75;100.00;78041.00;5005023;28;20486;-65
2023/04/16 09:02:52;;;;;;;14.40;7.68;;;;;;;-142.75;100.00;78046.91;5002876;28;20022;-65
2023/04/16 09:05:24;;;;;;;16.50;8.83;;;;;;;-142.75;100.00;78044.94;5004174;28;20133;-65
2023/04/16 09:07:51;;;;;;;14.10;7.70;;;;;;;-142.75;100.00;78025.25;5004846;28;20033;-65
2023/04/16 09:10:16;;;;;;;14.75;7.25;;;;;;;-142.75;100.00;78029.19;5000680;28;20389;-64
2023/04/16 09:12:43;;;;;;;12.57;6.72;;;;;;;-142.75;100.00;78031.16;5003344;28;20026;-65
2023/04/16 09:15:10;;;;;;;13.30;6.60;;;;;;;-142.75;100.00;78044.94;5002984;28;20030;-64
2023/04/16 09:17:35;;;;;;;8.82;5.93;;;;;;;-142.75;100.00;78054.81;5000346;28;20034;-64
2023/04/16 09:20:04;;;;;;;15.43;7.55;;;;;;;-142.75;100.00;78046.91;5007989;28;20029;-64
2023/04/16 09:22:30;;;;;;;15.10;8.10;;;;;;;-142.75;100.00;78037.06;5017946;28;20100;-64
2023/04/16 09:24:55;;;;;;;17.60;7.13;;;;;;;-142.75;100.00;78041.00;5013257;28;20117;-64
2023/04/16 09:27:21;;;;;;;14.25;7.40;;;;;;;-142.75;100.00;78031.16;4998809;28;20026;-65
2023/04/16 09:29:46;;;;;;;14.63;6.63;;;;;;;-142.75;100.00;78027.22;4994241;28;20096;-65
2023/04/16 09:32:12;;;;;;;14.27;6.80;;;;;;;-142.75;100.00;78050.84;4994271;28;20030;-64
2023/04/16 09:35:00;;;;;;;17.20;7.78;;;;;;;-142.75;100.00;78031.16;4992646;28;20085;-64
2023/04/16 09:37:28;;;;;;;12.68;7.20;;;;;;;-142.75;100.00;78029.19;4993780;28;20026;-65
2023/04/16 09:39:55;;;;;;;20.30;7.80;;;;;;;-142.75;100.00;78046.91;4994021;28;20034;-64
2023/04/16 09:42:27;;;;;;;16.63;8.70;;;;;;;-142.75;100.00;78044.94;4993788;28;20026;-63
2023/04/16 09:44:54;;;;;;;21.65;8.57;;;;;;;-142.75;100.00;78033.13;4993854;28;20030;-64
2023/04/16 09:47:20;;;;;;;17.90;7.80;;;;;;;-142.75;100.00;78023.28;5005807;28;20052;-65
2023/04/16 09:49:46;;;;;;;15.48;7.25;;;;;;;-142.75;100.00;78021.31;5007203;28;20025;-66
2023/04/16 09:52:16;;;;;;;12.43;6.75;;;;;;;-142.75;100.00;78009.50;5012628;28;20032;-64
2023/04/16 09:54:49;;;;;;;15.40;6.78;;;;;;;-142.75;100.00;78019.34;5011053;28;20014;-64
2023/04/16 09:57:20;;;;;;;11.55;6.07;;;;;;;-142.75;100.00;78003.59;5012878;28;20040;-65
2023/04/16 09:59:46;;;;;;;13.05;6.72;;;;;;;-142.75;100.00;78042.97;5012750;28;20030;-65
2023/04/16 10:02:11;;;;;;;17.63;6.47;;;;;;;-142.75;100.00;78039.03;5012327;28;20508;-66
2023/04/16 10:04:57;;;;;;;14.18;6.43;;;;;;;-142.75;100.00;78054.81;5012286;28;20018;-65
2023/04/16 10:07:27;;;;;;;13.02;5.97;;;;;;;-142.75;100.00;78054.81;5007975;28;20029;-66
2023/04/16 10:09:53;;;;;;;16.20;6.65;;;;;;;-142.75;100.00;78068.59;4992824;28;20093;-66
2023/04/16 10:12:19;;;;;;;12.57;5.55;;;;;;;-142.75;100.00;78062.69;4991698;28;20495;-65
2023/04/16 10:14:44;;;;;;;14.48;6.32;;;;;;;-142.75;100.00;78066.63;4991373;28;20030;-64
2023/04/16 10:17:09;;;;;;;14.43;5.82;;;;;;;-142.75;100.00;78066.63;4992258;28;20033;-64
2023/04/16 10:19:35;;;;;;;12.95;5.82;;;;;;;-142.75;100.00;78072.53;4992900;28;20019;-65
2023/04/16 10:22:01;;;;;;;12.45;5.60;;;;;;;-142.75;100.00;78078.44;4992814;28;20482;-64
2023/04/16 10:24:31;;;;;;;13.45;5.47;;;;;;;-142.75;100.00;78074.50;5005572;28;20015;-65
2023/04/16 10:26:57;;;;;;;21.17;6.40;;;;;;;-142.75;100.00;78086.31;4992515;28;20125;-63
2023/04/16 10:29:24;;;;;;;16.00;6.20;;;;;;;-142.75;100.00;78092.22;4992563;28;20028;-65
2023/04/16 10:31:51;;;;;;;17.58;7.30;;;;;;;-142.75;100.00;78109.94;4992649;28;20029;-65
2023/04/16 10:34:20;;;;;;;16.65;7.88;;;;;;;-142.75;100.00;78084.34;4992315;28;20041;-64
2023/04/16 10:36:51;;;;;;;18.58;6.47;;;;;;;-142.75;100.00;78080.41;4991780;28;20030;-63
2023/04/16 10:39:22;;;;;;;15.40;7.13;;;;;;;-142.75;100.00;78072.53;4992584;28;20512;-65
2023/04/16 10:41:48;;;;;;;22.38;8.55;;;;;;;-142.75;100.00;78080.41;4992547;28;20022;-65
2023/04/16 10:44:17;;;;;;;22.50;7.68;;;;;;;-142.75;100.00;78066.63;4992222;28;20588;-64
2023/04/16 10:46:44;;;;;;;21.63;7.03;;;;;;;-142.75;100.00;78072.53;4992378;28;20101;-63
2023/04/16 10:49:22;;;;;;;24.67;6.82;;;;;;;-142.75;100.00;78080.41;4992393;28;20021;-65
2023/04/16 10:51:55;;;;;;;11.55;6.18;;;;;;;-142.75;100.00;78078.44;4992346;28;20023;-64
2023/04/16 10:54:26;;;;;;;16.35;7.32;;;;;;;-142.75;100.00;78068.59;4995807;28;20014;-66
2023/04/16 10:56:54;;;;;;;17.00;8.00;;;;;;;-142.75;100.00;78068.59;4995319;28;20069;-66
2023/04/16 10:59:21;;;;;;;18.70;8.20;;;;;;;-142.75;100.00;78086.31;5004518;28;20049;-64